sensor_id;sensor_type;location;lat;lon;timestamp;P1;durP1;ratioP1;P2;durP2;ratioP2
7523;SDS011;3803;51.666;7.630;2023-04-03T00:00:12;3.25;;;1.90;;
7523;SDS011;3803;51.666;7.630;2023-04-03T00:00:33;2.88;;;2.00;;
7523;SDS011;3803;51.666;7.630;2023-04-03T00:00:54;2.58;;;2.00;;
7523;SDS011;3803;51.666;7.630;2023-04-03T00:01:16;2.13;;;2.00;;
7523;SDS011;3803;51.666;7.630;2023-04-03T00:01:37;3.65;;;2.00;;
7523;SDS011;3803;51.666;7.630;2023-04-03T00:01:58;4.22;;;2.08;;
7523;SDS011;3803;51.666;7.630;2023-04-03T00:02:19;4.47;;;2.00;;
7523;SDS011;3803;51.666;7.630;2023-04-03T00:02:39;3.00;;;2.00;;
7523;SDS011;3803;51.666;7.630;2023-04-03T00:03:00;2.80;;;1.77;;
7523;SDS011;3803;51.666;7.630;2023-04-03T00:03:21;3.00;;;1.90;;
7523;SDS011;3803;51.666;7.630;2023-04-03T00:03:42;2.90;;;1.88;;
7523;SDS011;3803;51.666;7.630;2023-04-03T00:04:03;2.95;;;1.90;;
7523;SDS011;3803;51.666;7.630;2023-04-03T00:04:24;3.55;;;1.80;;
7523;SDS011;3803;51.666;7.630;2023-04-03T00:04:45;4.50;;;2.00;;
7523;SDS011;3803;51.666;7.630;2023-04-03T00:05:06;5.30;;;2.10;;
7523;SDS011;3803;51.666;7.630;2023-04-03T00:05:27;4.03;;;2.10;;
7523;SDS011;3803;51.666;7.630;2023-04-03T00:05:48;4.43;;;2.10;;
7523;SDS011;3803;51.666;7.630;2023-04-03T00:06:10;5.43;;;2.10;;
7523;SDS011;3803;51.666;7.630;2023-04-03T00:06:31;5.95;;;2.20;;
7523;SDS011;3803;51.666;7.630;2023-04-03T00:06:52;4.43;;;2.05;;
7523;SDS011;3803;51.666;7.630;2023-04-03T00:07:13;2.50;;;1.88;;
7523;SDS011;3803;51.666;7.630;2023-04-03T00:07:34;2.00;;;1.70;;
7523;SDS011;3803;51.666;7.630;2023-04-03T00:07:55;2.25;;;1.70;;
7523;SDS011;3803;51.666;7.630;2023-04-03T00:08:16;2.30;;;1.73;;
7523;SDS011;3803;51.666;7.630;2023-04-03T00:08:37;2.90;;;1.73;;
7523;SDS011;3803;51.666;7.630;2023-04-03T00:08:59;3.13;;;1.90;;
7523;SDS011;3803;51.666;7.630;2023-04-03T00:09:20;3.05;;;2.00;;
7523;SDS011;3803;51.666;7.630;2023-04-03T00:09:40;3.00;;;2.00;;
7523;SDS011;3803;51.666;7.630;2023-04-03T00:10:01;3.17;;;1.90;;
7523;SDS011;3803;51.666;7.630;2023-04-03T00:10:22;3.50;;;2.10;;
7523;SDS011;3803;51.666;7.630;2023-04-03T00:10:43;4.25;;;2.00;;
7523;SDS011;3803;51.666;7.630;2023-04-03T00:12:01;3.10;;;2.20;;
7523;SDS011;3803;51.666;7.630;2023-04-03T00:12:21;2.20;;;1.88;;
7523;SDS011;3803;51.666;7.630;2023-04-03T00:12:42;1.97;;;1.77;;
7523;SDS011;3803;51.666;7.630;2023-04-03T00:13:03;3.47;;;1.80;;
7523;SDS011;3803;51.666;7.630;2023-04-03T00:13:25;3.80;;;1.90;;
7523;SDS011;3803;51.666;7.630;2023-04-03T00:13:45;2.70;;;1.70;;
7523;SDS011;3803;51.666;7.630;2023-04-03T00:14:06;2.35;;;1.88;;
7523;SDS011;3803;51.666;7.630;2023-04-03T00:14:27;2.53;;;1.90;;
7523;SDS011;3803;51.666;7.630;2023-04-03T00:14:47;2.77;;;2.20;;
7523;SDS011;3803;51.666;7.630;2023-04-03T00:15:08;2.80;;;2.40;;
7523;SDS011;3803;51.666;7.630;2023-04-03T00:15:29;2.83;;;2.50;;
7523;SDS011;3803;51.666;7.630;2023-04-03T00:15:50;4.25;;;2.30;;
7523;SDS011;3803;51.666;7.630;2023-04-03T00:16:11;5.93;;;2.00;;
7523;SDS011;3803;51.666;7.630;2023-04-03T00:16:32;6.68;;;2.03;;
7523;SDS011;3803;51.666;7.630;2023-04-03T00:16:53;5.70;;;2.17;;
7523;SDS011;3803;51.666;7.630;2023-04-03T00:17:13;4.05;;;2.17;;
7523;SDS011;3803;51.666;7.630;2023-04-03T00:17:34;4.10;;;2.13;;
7523;SDS011;3803;51.666;7.630;2023-04-03T00:17:55;3.72;;;2.30;;
7523;SDS011;3803;51.666;7.630;2023-04-03T00:18:15;4.10;;;2.50;;
7523;SDS011;3803;51.666;7.630;2023-04-03T00:18:36;3.00;;;2.47;;
7523;SDS011;3803;51.666;7.630;2023-04-03T00:18:58;3.78;;;2.40;;
7523;SDS011;3803;51.666;7.630;2023-04-03T00:19:18;4.10;;;2.40;;
7523;SDS011;3803;51.666;7.630;2023-04-03T00:19:39;4.85;;;2.55;;
7523;SDS011;3803;51.666;7.630;2023-04-03T00:20:00;3.00;;;2.30;;
7523;SDS011;3803;51.666;7.630;2023-04-03T00:20:21;2.35;;;2.15;;
7523;SDS011;3803;51.666;7.630;2023-04-03T00:20:42;2.20;;;2.00;;
7523;SDS011;3803;51.666;7.630;2023-04-03T00:21:03;2.42;;;2.05;;
7523;SDS011;3803;51.666;7.630;2023-04-03T00:21:24;2.53;;;2.20;;
7523;SDS011;3803;51.666;7.630;2023-04-03T00:21:45;3.37;;;2.43;;
7523;SDS011;3803;51.666;7.630;2023-04-03T00:22:06;4.18;;;2.50;;
7523;SDS011;3803;51.666;7.630;2023-04-03T00:22:26;4.63;;;2.70;;
7523;SDS011;3803;51.666;7.630;2023-04-03T00:22:48;4.15;;;2.70;;
7523;SDS011;3803;51.666;7.630;2023-04-03T00:23:09;4.40;;;2.80;;
7523;SDS011;3803;51.666;7.630;2023-04-03T00:23:30;4.63;;;2.70;;
7523;SDS011;3803;51.666;7.630;2023-04-03T00:23:51;4.22;;;2.53;;
7523;SDS011;3803;51.666;7.630;2023-04-03T00:24:11;3.15;;;2.28;;
7523;SDS011;3803;51.666;7.630;2023-04-03T00:24:32;2.30;;;1.95;;
7523;SDS011;3803;51.666;7.630;2023-04-03T00:24:53;4.03;;;2.17;;
7523;SDS011;3803;51.666;7.630;2023-04-03T00:25:13;4.45;;;2.40;;
7523;SDS011;3803;51.666;7.630;2023-04-03T00:25:34;3.90;;;2.40;;
7523;SDS011;3803;51.666;7.630;2023-04-03T00:25:55;2.85;;;2.38;;
7523;SDS011;3803;51.666;7.630;2023-04-03T00:26:16;2.80;;;2.20;;
7523;SDS011;3803;51.666;7.630;2023-04-03T00:26:36;3.70;;;2.40;;
7523;SDS011;3803;51.666;7.630;2023-04-03T00:26:57;3.70;;;2.53;;
7523;SDS011;3803;51.666;7.630;2023-04-03T00:27:18;2.97;;;2.40;;
7523;SDS011;3803;51.666;7.630;2023-04-03T00:27:38;3.50;;;2.40;;
7523;SDS011;3803;51.666;7.630;2023-04-03T00:28:00;3.40;;;2.20;;
7523;SDS011;3803;51.666;7.630;2023-04-03T00:28:21;4.03;;;2.13;;
7523;SDS011;3803;51.666;7.630;2023-04-03T00:28:42;3.40;;;2.10;;
7523;SDS011;3803;51.666;7.630;2023-04-03T00:29:02;5.78;;;2.20;;
7523;SDS011;3803;51.666;7.630;2023-04-03T00:29:23;5.93;;;2.30;;
7523;SDS011;3803;51.666;7.630;2023-04-03T00:29:44;5.72;;;2.30;;
7523;SDS011;3803;51.666;7.630;2023-04-03T00:30:05;3.50;;;2.50;;
7523;SDS011;3803;51.666;7.630;2023-04-03T00:30:27;3.15;;;2.70;;
7523;SDS011;3803;51.666;7.630;2023-04-03T00:30:49;3.17;;;2.60;;
7523;SDS011;3803;51.666;7.630;2023-04-03T00:31:09;2.72;;;2.47;;
7523;SDS011;3803;51.666;7.630;2023-04-03T00:31:30;3.55;;;2.30;;
7523;SDS011;3803;51.666;7.630;2023-04-03T00:31:50;4.00;;;2.40;;
7523;SDS011;3803;51.666;7.630;2023-04-03T00:32:11;5.00;;;2.50;;
7523;SDS011;3803;51.666;7.630;2023-04-03T00:32:32;4.70;;;2.40;;
7523;SDS011;3803;51.666;7.630;2023-04-03T00:32:52;4.80;;;2.30;;
7523;SDS011;3803;51.666;7.630;2023-04-03T00:33:13;4.28;;;2.40;;
7523;SDS011;3803;51.666;7.630;2023-04-03T00:33:34;3.50;;;2.53;;
7523;SDS011;3803;51.666;7.630;2023-04-03T00:33:55;3.80;;;2.50;;
7523;SDS011;3803;51.666;7.630;2023-04-03T00:34:16;4.30;;;2.47;;
7523;SDS011;3803;51.666;7.630;2023-04-03T00:34:37;4.33;;;2.20;;
7523;SDS011;3803;51.666;7.630;2023-04-03T00:34:58;3.70;;;2.20;;
7523;SDS011;3803;51.666;7.630;2023-04-03T00:35:19;4.60;;;2.40;;
7523;SDS011;3803;51.666;7.630;2023-04-03T00:35:41;5.30;;;2.70;;
7523;SDS011;3803;51.666;7.630;2023-04-03T00:36:05;6.60;;;2.70;;
7523;SDS011;3803;51.666;7.630;2023-04-03T00:36:27;6.30;;;2.45;;
7523;SDS011;3803;51.666;7.630;2023-04-03T00:36:48;5.60;;;2.50;;
7523;SDS011;3803;51.666;7.630;2023-04-03T00:37:08;4.40;;;2.60;;
7523;SDS011;3803;51.666;7.630;2023-04-03T00:37:29;4.07;;;2.70;;
7523;SDS011;3803;51.666;7.630;2023-04-03T00:37:51;4.10;;;2.72;;
7523;SDS011;3803;51.666;7.630;2023-04-03T00:38:13;4.63;;;2.70;;
7523;SDS011;3803;51.666;7.630;2023-04-03T00:38:34;4.05;;;2.60;;
7523;SDS011;3803;51.666;7.630;2023-04-03T00:38:55;3.92;;;2.70;;
7523;SDS011;3803;51.666;7.630;2023-04-03T00:39:16;5.10;;;2.80;;
7523;SDS011;3803;51.666;7.630;2023-04-03T00:39:36;5.20;;;2.57;;
7523;SDS011;3803;51.666;7.630;2023-04-03T00:39:57;5.50;;;2.30;;
7523;SDS011;3803;51.666;7.630;2023-04-03T00:40:17;3.97;;;1.95;;
7523;SDS011;3803;51.666;7.630;2023-04-03T00:40:42;4.20;;;2.10;;
7523;SDS011;3803;51.666;7.630;2023-04-03T00:41:04;3.70;;;2.20;;
7523;SDS011;3803;51.666;7.630;2023-04-03T00:41:24;3.47;;;2.40;;
7523;SDS011;3803;51.666;7.630;2023-04-03T00:41:45;2.58;;;2.20;;
7523;SDS011;3803;51.666;7.630;2023-04-03T00:42:06;2.45;;;2.22;;
7523;SDS011;3803;51.666;7.630;2023-04-03T00:42:26;2.90;;;2.33;;
7523;SDS011;3803;51.666;7.630;2023-04-03T00:42:48;3.70;;;2.40;;
7523;SDS011;3803;51.666;7.630;2023-04-03T00:43:16;3.75;;;2.20;;
7523;SDS011;3803;51.666;7.630;2023-04-03T00:43:39;3.97;;;2.20;;
7523;SDS011;3803;51.666;7.630;2023-04-03T00:43:59;3.97;;;2.20;;
7523;SDS011;3803;51.666;7.630;2023-04-03T00:45:48;3.50;;;2.45;;
7523;SDS011;3803;51.666;7.630;2023-04-03T00:46:12;4.06;;;2.50;;
7523;SDS011;3803;51.666;7.630;2023-04-03T00:46:32;4.00;;;2.43;;
7523;SDS011;3803;51.666;7.630;2023-04-03T00:46:53;4.28;;;2.30;;
7523;SDS011;3803;51.666;7.630;2023-04-03T00:47:15;4.18;;;2.30;;
7523;SDS011;3803;51.666;7.630;2023-04-03T00:47:38;4.80;;;2.10;;
7523;SDS011;3803;51.666;7.630;2023-04-03T00:48:00;4.18;;;2.00;;
7523;SDS011;3803;51.666;7.630;2023-04-03T00:48:28;3.22;;;2.10;;
7523;SDS011;3803;51.666;7.630;2023-04-03T00:48:51;2.42;;;2.22;;
7523;SDS011;3803;51.666;7.630;2023-04-03T00:49:11;2.43;;;2.17;;
7523;SDS011;3803;51.666;7.630;2023-04-03T00:49:32;2.50;;;2.30;;
7523;SDS011;3803;51.666;7.630;2023-04-03T00:49:53;2.75;;;2.40;;
7523;SDS011;3803;51.666;7.630;2023-04-03T00:50:14;3.05;;;2.40;;
7523;SDS011;3803;51.666;7.630;2023-04-03T00:50:37;3.33;;;2.38;;
7523;SDS011;3803;51.666;7.630;2023-04-03T00:51:00;4.10;;;2.42;;
7523;SDS011;3803;51.666;7.630;2023-04-03T00:51:23;5.53;;;2.60;;
7523;SDS011;3803;51.666;7.630;2023-04-03T00:51:45;4.70;;;2.50;;
7523;SDS011;3803;51.666;7.630;2023-04-03T00:52:07;4.82;;;2.33;;
7523;SDS011;3803;51.666;7.630;2023-04-03T00:52:32;6.70;;;2.40;;
7523;SDS011;3803;51.666;7.630;2023-04-03T00:52:53;7.35;;;2.40;;
7523;SDS011;3803;51.666;7.630;2023-04-03T00:53:19;4.95;;;2.30;;
7523;SDS011;3803;51.666;7.630;2023-04-03T00:53:49;4.82;;;2.33;;
7523;SDS011;3803;51.666;7.630;2023-04-03T00:54:13;4.57;;;2.38;;
7523;SDS011;3803;51.666;7.630;2023-04-03T00:54:35;4.20;;;2.30;;
7523;SDS011;3803;51.666;7.630;2023-04-03T00:54:58;4.82;;;2.50;;
7523;SDS011;3803;51.666;7.630;2023-04-03T00:55:24;4.90;;;2.40;;
7523;SDS011;3803;51.666;7.630;2023-04-03T00:55:45;4.13;;;2.20;;
7523;SDS011;3803;51.666;7.630;2023-04-03T00:56:09;3.80;;;2.00;;
7523;SDS011;3803;51.666;7.630;2023-04-03T00:56:31;4.30;;;2.08;;
7523;SDS011;3803;51.666;7.630;2023-04-03T00:56:53;2.75;;;2.10;;
7523;SDS011;3803;51.666;7.630;2023-04-03T00:57:16;5.00;;;2.40;;
7523;SDS011;3803;51.666;7.630;2023-04-03T00:57:37;4.65;;;2.30;;
7523;SDS011;3803;51.666;7.630;2023-04-03T00:57:58;4.75;;;2.33;;
7523;SDS011;3803;51.666;7.630;2023-04-03T00:58:21;3.03;;;2.30;;
7523;SDS011;3803;51.666;7.630;2023-04-03T00:58:48;3.30;;;2.47;;
7523;SDS011;3803;51.666;7.630;2023-04-03T00:59:15;3.40;;;2.30;;
7523;SDS011;3803;51.666;7.630;2023-04-03T00:59:43;3.75;;;2.15;;
7523;SDS011;3803;51.666;7.630;2023-04-03T01:00:10;3.75;;;2.10;;
7523;SDS011;3803;51.666;7.630;2023-04-03T01:00:35;4.10;;;2.10;;
7523;SDS011;3803;51.666;7.630;2023-04-03T01:00:59;4.22;;;2.20;;
7523;SDS011;3803;51.666;7.630;2023-04-03T01:01:27;3.97;;;2.22;;
7523;SDS011;3803;51.666;7.630;2023-04-03T01:01:48;4.28;;;2.50;;
7523;SDS011;3803;51.666;7.630;2023-04-03T01:02:09;3.90;;;2.33;;
7523;SDS011;3803;51.666;7.630;2023-04-03T01:02:31;4.03;;;2.30;;
7523;SDS011;3803;51.666;7.630;2023-04-03T01:02:52;5.03;;;2.10;;
7523;SDS011;3803;51.666;7.630;2023-04-03T01:03:13;4.85;;;2.05;;
7523;SDS011;3803;51.666;7.630;2023-04-03T01:03:34;5.07;;;2.20;;
7523;SDS011;3803;51.666;7.630;2023-04-03T01:04:00;2.95;;;2.10;;
7523;SDS011;3803;51.666;7.630;2023-04-03T01:04:30;2.83;;;1.95;;
7523;SDS011;3803;51.666;7.630;2023-04-03T01:04:52;3.00;;;2.10;;
7523;SDS011;3803;51.666;7.630;2023-04-03T01:05:13;2.40;;;2.20;;
7523;SDS011;3803;51.666;7.630;2023-04-03T01:05:37;2.90;;;2.20;;
7523;SDS011;3803;51.666;7.630;2023-04-03T01:05:58;3.97;;;2.40;;
7523;SDS011;3803;51.666;7.630;2023-04-03T01:06:20;3.95;;;2.40;;
7523;SDS011;3803;51.666;7.630;2023-04-03T01:06:45;4.13;;;2.30;;
7523;SDS011;3803;51.666;7.630;2023-04-03T01:07:07;3.08;;;2.00;;
7523;SDS011;3803;51.666;7.630;2023-04-03T01:07:30;2.95;;;2.15;;
7523;SDS011;3803;51.666;7.630;2023-04-03T01:07:51;2.80;;;2.20;;
7523;SDS011;3803;51.666;7.630;2023-04-03T01:08:13;3.35;;;2.05;;
7523;SDS011;3803;51.666;7.630;2023-04-03T01:08:34;5.18;;;2.20;;
7523;SDS011;3803;51.666;7.630;2023-04-03T01:08:55;5.30;;;2.15;;
7523;SDS011;3803;51.666;7.630;2023-04-03T01:09:16;4.87;;;2.00;;
7523;SDS011;3803;51.666;7.630;2023-04-03T01:09:36;3.47;;;1.97;;
7523;SDS011;3803;51.666;7.630;2023-04-03T01:10:00;3.30;;;2.00;;
7523;SDS011;3803;51.666;7.630;2023-04-03T01:10:23;2.50;;;2.10;;
7523;SDS011;3803;51.666;7.630;2023-04-03T01:10:45;3.30;;;2.00;;
7523;SDS011;3803;51.666;7.630;2023-04-03T01:11:06;4.45;;;2.30;;
7523;SDS011;3803;51.666;7.630;2023-04-03T01:11:28;4.70;;;2.55;;
7523;SDS011;3803;51.666;7.630;2023-04-03T01:11:48;4.10;;;2.80;;
7523;SDS011;3803;51.666;7.630;2023-04-03T01:12:14;3.80;;;2.70;;
7523;SDS011;3803;51.666;7.630;2023-04-03T01:12:44;2.63;;;2.10;;
7523;SDS011;3803;51.666;7.630;2023-04-03T01:13:25;3.30;;;2.20;;
7523;SDS011;3803;51.666;7.630;2023-04-03T01:13:48;4.57;;;2.30;;
7523;SDS011;3803;51.666;7.630;2023-04-03T01:14:09;3.38;;;2.28;;
7523;SDS011;3803;51.666;7.630;2023-04-03T01:14:30;3.63;;;2.10;;
7523;SDS011;3803;51.666;7.630;2023-04-03T01:14:54;4.40;;;2.23;;
7523;SDS011;3803;51.666;7.630;2023-04-03T01:15:19;4.35;;;2.13;;
7523;SDS011;3803;51.666;7.630;2023-04-03T01:15:42;4.60;;;2.10;;
7523;SDS011;3803;51.666;7.630;2023-04-03T01:16:04;4.72;;;2.30;;
7523;SDS011;3803;51.666;7.630;2023-04-03T01:16:25;5.20;;;2.30;;
7523;SDS011;3803;51.666;7.630;2023-04-03T01:16:53;4.60;;;2.38;;
7523;SDS011;3803;51.666;7.630;2023-04-03T01:17:27;4.55;;;2.20;;
7523;SDS011;3803;51.666;7.630;2023-04-03T01:17:59;3.47;;;2.22;;
7523;SDS011;3803;51.666;7.630;2023-04-03T01:18:22;3.67;;;2.40;;
7523;SDS011;3803;51.666;7.630;2023-04-03T01:18:44;4.70;;;2.30;;
7523;SDS011;3803;51.666;7.630;2023-04-03T01:19:06;4.43;;;2.25;;
7523;SDS011;3803;51.666;7.630;2023-04-03T01:19:34;3.50;;;2.20;;
7523;SDS011;3803;51.666;7.630;2023-04-03T01:21:40;7.25;;;2.35;;
7523;SDS011;3803;51.666;7.630;2023-04-03T01:22:15;3.58;;;2.00;;
7523;SDS011;3803;51.666;7.630;2023-04-03T01:23:38;4.28;;;2.53;;
7523;SDS011;3803;51.666;7.630;2023-04-03T01:24:20;4.70;;;2.25;;
7523;SDS011;3803;51.666;7.630;2023-04-03T01:24:47;8.25;;;2.40;;
7523;SDS011;3803;51.666;7.630;2023-04-03T01:25:08;7.88;;;2.58;;
7523;SDS011;3803;51.666;7.630;2023-04-03T01:25:29;5.78;;;2.70;;
7523;SDS011;3803;51.666;7.630;2023-04-03T01:25:53;5.63;;;2.75;;
7523;SDS011;3803;51.666;7.630;2023-04-03T01:26:26;4.72;;;2.35;;
7523;SDS011;3803;51.666;7.630;2023-04-03T01:26:48;3.05;;;2.20;;
7523;SDS011;3803;51.666;7.630;2023-04-03T01:27:10;3.13;;;2.13;;
7523;SDS011;3803;51.666;7.630;2023-04-03T01:27:32;3.60;;;2.13;;
7523;SDS011;3803;51.666;7.630;2023-04-03T01:27:52;4.00;;;2.20;;
7523;SDS011;3803;51.666;7.630;2023-04-03T01:28:15;3.20;;;2.08;;
7523;SDS011;3803;51.666;7.630;2023-04-03T01:28:37;3.20;;;2.05;;
7523;SDS011;3803;51.666;7.630;2023-04-03T01:28:58;4.30;;;2.20;;
7523;SDS011;3803;51.666;7.630;2023-04-03T01:29:19;5.25;;;2.40;;
7523;SDS011;3803;51.666;7.630;2023-04-03T01:29:41;6.00;;;2.45;;
7523;SDS011;3803;51.666;7.630;2023-04-03T01:30:03;4.85;;;2.40;;
7523;SDS011;3803;51.666;7.630;2023-04-03T01:30:26;3.45;;;2.30;;
7523;SDS011;3803;51.666;7.630;2023-04-03T01:31:56;3.67;;;2.53;;
7523;SDS011;3803;51.666;7.630;2023-04-03T01:32:18;5.78;;;2.63;;
7523;SDS011;3803;51.666;7.630;2023-04-03T01:32:39;6.82;;;2.60;;
7523;SDS011;3803;51.666;7.630;2023-04-03T01:33:00;7.03;;;2.53;;
7523;SDS011;3803;51.666;7.630;2023-04-03T01:33:20;5.20;;;2.30;;
7523;SDS011;3803;51.666;7.630;2023-04-03T01:33:42;4.00;;;2.38;;
7523;SDS011;3803;51.666;7.630;2023-04-03T01:34:03;2.60;;;2.22;;
7523;SDS011;3803;51.666;7.630;2023-04-03T01:34:26;2.45;;;2.15;;
7523;SDS011;3803;51.666;7.630;2023-04-03T01:34:48;2.30;;;2.10;;
7523;SDS011;3803;51.666;7.630;2023-04-03T01:35:09;2.30;;;2.10;;
7523;SDS011;3803;51.666;7.630;2023-04-03T01:35:31;2.30;;;2.10;;
7523;SDS011;3803;51.666;7.630;2023-04-03T01:35:52;2.45;;;2.15;;
7523;SDS011;3803;51.666;7.630;2023-04-03T01:36:17;4.20;;;2.50;;
7523;SDS011;3803;51.666;7.630;2023-04-03T01:36:42;4.88;;;2.50;;
7523;SDS011;3803;51.666;7.630;2023-04-03T01:37:03;6.30;;;2.50;;
7523;SDS011;3803;51.666;7.630;2023-04-03T01:37:24;6.00;;;2.38;;
7523;SDS011;3803;51.666;7.630;2023-04-03T01:37:44;5.90;;;2.30;;
7523;SDS011;3803;51.666;7.630;2023-04-03T01:38:05;2.70;;;2.20;;
7523;SDS011;3803;51.666;7.630;2023-04-03T01:38:26;3.00;;;2.22;;
7523;SDS011;3803;51.666;7.630;2023-04-03T01:38:47;3.00;;;2.10;;
7523;SDS011;3803;51.666;7.630;2023-04-03T01:39:08;3.13;;;1.95;;
7523;SDS011;3803;51.666;7.630;2023-04-03T01:39:29;2.90;;;1.80;;
7523;SDS011;3803;51.666;7.630;2023-04-03T01:39:50;2.80;;;1.88;;
7523;SDS011;3803;51.666;7.630;2023-04-03T01:40:11;2.80;;;1.90;;
7523;SDS011;3803;51.666;7.630;2023-04-03T01:40:32;5.22;;;2.00;;
7523;SDS011;3803;51.666;7.630;2023-04-03T01:40:53;4.73;;;1.90;;
7523;SDS011;3803;51.666;7.630;2023-04-03T01:41:13;4.80;;;2.05;;
7523;SDS011;3803;51.666;7.630;2023-04-03T01:41:35;3.90;;;2.00;;
7523;SDS011;3803;51.666;7.630;2023-04-03T01:42:04;3.65;;;1.92;;
7523;SDS011;3803;51.666;7.630;2023-04-03T01:42:28;3.85;;;2.00;;
7523;SDS011;3803;51.666;7.630;2023-04-03T01:42:49;4.40;;;2.03;;
7523;SDS011;3803;51.666;7.630;2023-04-03T01:43:10;3.80;;;1.97;;
7523;SDS011;3803;51.666;7.630;2023-04-03T01:43:30;2.95;;;1.98;;
7523;SDS011;3803;51.666;7.630;2023-04-03T01:43:51;3.55;;;2.10;;
7523;SDS011;3803;51.666;7.630;2023-04-03T01:44:12;4.38;;;2.20;;
7523;SDS011;3803;51.666;7.630;2023-04-03T01:44:32;4.93;;;2.20;;
7523;SDS011;3803;51.666;7.630;2023-04-03T01:44:53;4.20;;;2.10;;
7523;SDS011;3803;51.666;7.630;2023-04-03T01:45:14;4.13;;;2.08;;
7523;SDS011;3803;51.666;7.630;2023-04-03T01:45:35;3.60;;;2.00;;
7523;SDS011;3803;51.666;7.630;2023-04-03T01:45:56;3.50;;;2.13;;
7523;SDS011;3803;51.666;7.630;2023-04-03T01:46:17;3.17;;;2.20;;
7523;SDS011;3803;51.666;7.630;2023-04-03T01:46:38;2.70;;;2.30;;
7523;SDS011;3803;51.666;7.630;2023-04-03T01:46:59;2.70;;;2.05;;
7523;SDS011;3803;51.666;7.630;2023-04-03T01:47:24;2.15;;;2.00;;
7523;SDS011;3803;51.666;7.630;2023-04-03T01:47:45;2.38;;;1.90;;
7523;SDS011;3803;51.666;7.630;2023-04-03T01:48:06;2.80;;;1.90;;
7523;SDS011;3803;51.666;7.630;2023-04-03T01:48:27;3.47;;;2.10;;
7523;SDS011;3803;51.666;7.630;2023-04-03T01:48:48;3.25;;;2.28;;
7523;SDS011;3803;51.666;7.630;2023-04-03T01:49:09;3.30;;;2.30;;
7523;SDS011;3803;51.666;7.630;2023-04-03T01:49:30;3.08;;;2.17;;
7523;SDS011;3803;51.666;7.630;2023-04-03T01:49:52;3.70;;;2.17;;
7523;SDS011;3803;51.666;7.630;2023-04-03T01:50:13;3.35;;;2.10;;
7523;SDS011;3803;51.666;7.630;2023-04-03T01:50:33;2.65;;;2.10;;
7523;SDS011;3803;51.666;7.630;2023-04-03T01:50:54;2.97;;;2.00;;
7523;SDS011;3803;51.666;7.630;2023-04-03T01:51:15;2.70;;;1.95;;
7523;SDS011;3803;51.666;7.630;2023-04-03T01:51:36;2.47;;;2.00;;
7523;SDS011;3803;51.666;7.630;2023-04-03T01:51:57;3.30;;;2.27;;
7523;SDS011;3803;51.666;7.630;2023-04-03T01:52:17;3.60;;;2.50;;
7523;SDS011;3803;51.666;7.630;2023-04-03T01:52:38;4.32;;;2.50;;
7523;SDS011;3803;51.666;7.630;2023-04-03T01:52:59;5.70;;;2.40;;
7523;SDS011;3803;51.666;7.630;2023-04-03T01:53:20;4.95;;;2.10;;
7523;SDS011;3803;51.666;7.630;2023-04-03T01:53:41;5.10;;;2.20;;
7523;SDS011;3803;51.666;7.630;2023-04-03T01:54:01;2.80;;;2.10;;
7523;SDS011;3803;51.666;7.630;2023-04-03T01:54:22;3.30;;;2.10;;
7523;SDS011;3803;51.666;7.630;2023-04-03T01:54:42;2.80;;;2.00;;
7523;SDS011;3803;51.666;7.630;2023-04-03T01:55:03;2.88;;;2.10;;
7523;SDS011;3803;51.666;7.630;2023-04-03T01:55:24;3.95;;;2.30;;
7523;SDS011;3803;51.666;7.630;2023-04-03T01:55:45;3.53;;;2.17;;
7523;SDS011;3803;51.666;7.630;2023-04-03T01:56:05;3.80;;;2.30;;
7523;SDS011;3803;51.666;7.630;2023-04-03T01:56:27;3.40;;;2.20;;
7523;SDS011;3803;51.666;7.630;2023-04-03T01:56:48;3.70;;;2.20;;
7523;SDS011;3803;51.666;7.630;2023-04-03T01:57:09;3.92;;;2.08;;
7523;SDS011;3803;51.666;7.630;2023-04-03T01:57:30;3.95;;;2.15;;
7523;SDS011;3803;51.666;7.630;2023-04-03T01:57:51;4.03;;;2.20;;
7523;SDS011;3803;51.666;7.630;2023-04-03T01:58:11;4.78;;;2.08;;
7523;SDS011;3803;51.666;7.630;2023-04-03T01:58:32;3.80;;;1.90;;
7523;SDS011;3803;51.666;7.630;2023-04-03T01:58:53;4.50;;;1.90;;
7523;SDS011;3803;51.666;7.630;2023-04-03T01:59:14;3.38;;;2.10;;
7523;SDS011;3803;51.666;7.630;2023-04-03T01:59:37;3.95;;;2.10;;
7523;SDS011;3803;51.666;7.630;2023-04-03T01:59:58;3.53;;;2.13;;
7523;SDS011;3803;51.666;7.630;2023-04-03T02:00:19;3.33;;;1.90;;
7523;SDS011;3803;51.666;7.630;2023-04-03T02:00:39;3.30;;;2.00;;
7523;SDS011;3803;51.666;7.630;2023-04-03T02:01:00;3.83;;;2.10;;
7523;SDS011;3803;51.666;7.630;2023-04-03T02:01:22;5.07;;;2.20;;
7523;SDS011;3803;51.666;7.630;2023-04-03T02:01:43;4.23;;;2.17;;
7523;SDS011;3803;51.666;7.630;2023-04-03T02:02:05;4.28;;;2.20;;
7523;SDS011;3803;51.666;7.630;2023-04-03T02:02:27;2.55;;;2.08;;
7523;SDS011;3803;51.666;7.630;2023-04-03T02:02:47;2.17;;;1.83;;
7523;SDS011;3803;51.666;7.630;2023-04-03T02:03:08;3.00;;;1.83;;
7523;SDS011;3803;51.666;7.630;2023-04-03T02:03:29;3.30;;;2.10;;
7523;SDS011;3803;51.666;7.630;2023-04-03T02:03:51;3.40;;;2.10;;
7523;SDS011;3803;51.666;7.630;2023-04-03T02:04:11;2.67;;;2.10;;
7523;SDS011;3803;51.666;7.630;2023-04-03T02:04:32;5.35;;;2.10;;
7523;SDS011;3803;51.666;7.630;2023-04-03T02:04:53;6.93;;;2.20;;
7523;SDS011;3803;51.666;7.630;2023-04-03T02:05:15;7.18;;;2.13;;
7523;SDS011;3803;51.666;7.630;2023-04-03T02:05:36;4.13;;;2.10;;
7523;SDS011;3803;51.666;7.630;2023-04-03T02:05:56;3.00;;;2.10;;
7523;SDS011;3803;51.666;7.630;2023-04-03T02:06:17;2.85;;;1.92;;
7523;SDS011;3803;51.666;7.630;2023-04-03T02:06:38;4.23;;;2.10;;
7523;SDS011;3803;51.666;7.630;2023-04-03T02:06:59;4.38;;;2.10;;
7523;SDS011;3803;51.666;7.630;2023-04-03T02:07:19;4.82;;;2.10;;
7523;SDS011;3803;51.666;7.630;2023-04-03T02:07:40;3.28;;;1.90;;
7523;SDS011;3803;51.666;7.630;2023-04-03T02:08:02;2.42;;;1.80;;
7523;SDS011;3803;51.666;7.630;2023-04-03T02:08:23;4.18;;;2.00;;
7523;SDS011;3803;51.666;7.630;2023-04-03T02:08:43;4.43;;;1.90;;
7523;SDS011;3803;51.666;7.630;2023-04-03T02:09:04;3.42;;;1.75;;
7523;SDS011;3803;51.666;7.630;2023-04-03T02:09:25;3.10;;;1.50;;
7523;SDS011;3803;51.666;7.630;2023-04-03T02:09:47;3.38;;;1.75;;
7523;SDS011;3803;51.666;7.630;2023-04-03T02:10:07;4.63;;;1.83;;
7523;SDS011;3803;51.666;7.630;2023-04-03T02:10:31;3.70;;;2.08;;
7523;SDS011;3803;51.666;7.630;2023-04-03T02:10:52;4.43;;;2.20;;
7523;SDS011;3803;51.666;7.630;2023-04-03T02:11:13;3.03;;;2.00;;
7523;SDS011;3803;51.666;7.630;2023-04-03T02:11:33;2.78;;;1.90;;
7523;SDS011;3803;51.666;7.630;2023-04-03T02:11:54;2.80;;;1.90;;
7523;SDS011;3803;51.666;7.630;2023-04-03T02:12:15;3.97;;;1.92;;
7523;SDS011;3803;51.666;7.630;2023-04-03T02:12:37;4.78;;;2.00;;
7523;SDS011;3803;51.666;7.630;2023-04-03T02:13:37;3.45;;;1.90;;
7523;SDS011;3803;51.666;7.630;2023-04-03T02:13:58;3.63;;;1.90;;
7523;SDS011;3803;51.666;7.630;2023-04-03T02:14:19;3.50;;;2.00;;
7523;SDS011;3803;51.666;7.630;2023-04-03T02:14:40;3.70;;;2.10;;
7523;SDS011;3803;51.666;7.630;2023-04-03T02:15:05;4.38;;;2.20;;
7523;SDS011;3803;51.666;7.630;2023-04-03T02:15:26;6.20;;;2.53;;
7523;SDS011;3803;51.666;7.630;2023-04-03T02:15:47;6.50;;;2.33;;
7523;SDS011;3803;51.666;7.630;2023-04-03T02:16:10;4.20;;;2.13;;
7523;SDS011;3803;51.666;7.630;2023-04-03T02:16:32;2.35;;;1.90;;
7523;SDS011;3803;51.666;7.630;2023-04-03T02:16:53;3.00;;;1.98;;
7523;SDS011;3803;51.666;7.630;2023-04-03T02:17:16;4.20;;;2.10;;
7523;SDS011;3803;51.666;7.630;2023-04-03T02:17:37;4.00;;;2.00;;
7523;SDS011;3803;51.666;7.630;2023-04-03T02:18:00;3.10;;;2.10;;
7523;SDS011;3803;51.666;7.630;2023-04-03T02:18:21;2.47;;;2.10;;
7523;SDS011;3803;51.666;7.630;2023-04-03T02:18:41;2.63;;;2.20;;
7523;SDS011;3803;51.666;7.630;2023-04-03T02:19:02;3.70;;;2.40;;
7523;SDS011;3803;51.666;7.630;2023-04-03T02:19:24;3.28;;;2.20;;
7523;SDS011;3803;51.666;7.630;2023-04-03T02:19:45;3.28;;;1.95;;
7523;SDS011;3803;51.666;7.630;2023-04-03T02:20:06;2.80;;;2.03;;
7523;SDS011;3803;51.666;7.630;2023-04-03T02:20:27;3.40;;;2.20;;
7523;SDS011;3803;51.666;7.630;2023-04-03T02:20:48;2.85;;;2.30;;
7523;SDS011;3803;51.666;7.630;2023-04-03T02:21:17;2.40;;;2.13;;
7523;SDS011;3803;51.666;7.630;2023-04-03T02:21:38;2.97;;;2.40;;
7523;SDS011;3803;51.666;7.630;2023-04-03T02:21:59;2.90;;;2.40;;
7523;SDS011;3803;51.666;7.630;2023-04-03T02:22:19;2.22;;;2.03;;
7523;SDS011;3803;51.666;7.630;2023-04-03T02:22:40;2.70;;;2.10;;
7523;SDS011;3803;51.666;7.630;2023-04-03T02:23:01;3.00;;;2.10;;